createdAt,value
2019-05-06T00:03:14.450Z,6.64
2019-05-06T00:08:17.870Z,6.70
2019-05-06T00:13:21.266Z,6.69
2019-05-06T00:18:24.683Z,6.73
2019-05-06T00:23:32.452Z,6.70
2019-05-06T00:28:37.501Z,6.65
2019-05-06T00:33:40.921Z,6.65
2019-05-06T00:38:46.045Z,6.55
2019-05-06T00:43:49.453Z,6.51
2019-05-06T00:48:54.260Z,6.42
2019-05-06T00:53:59.512Z,6.43
2019-05-06T00:59:03.986Z,6.43
2019-05-06T01:04:07.485Z,6.37
2019-05-06T01:09:14.080Z,6.32
2019-05-06T01:14:35.349Z,6.26
2019-05-06T01:19:38.880Z,6.18
2019-05-06T01:24:43.933Z,6.11
2019-05-06T01:29:47.492Z,6.06
2019-05-06T01:34:50.911Z,6.04
2019-05-06T01:40:05.376Z,5.96
2019-05-06T01:45:10.059Z,5.86
2019-05-06T01:50:14.114Z,5.85
2019-05-06T01:55:17.690Z,5.84
2019-05-06T02:00:23.727Z,5.85
2019-05-06T02:05:27.331Z,5.84
2019-05-06T02:10:30.774Z,5.86
2019-05-06T02:15:34.635Z,5.87
2019-05-06T02:20:39.751Z,5.88
2019-05-06T02:25:44.814Z,5.87
2019-05-06T02:30:54.829Z,5.90
2019-05-06T02:35:59.499Z,5.91
2019-05-06T02:41:03.675Z,5.89
2019-05-06T02:46:07.267Z,5.95
2019-05-06T02:51:13.333Z,6.01
2019-05-06T02:56:17.028Z,6.02
2019-05-06T03:01:23.353Z,6.00
2019-05-06T03:06:26.320Z,6.04
2019-05-06T03:11:29.748Z,6.03
2019-05-06T03:16:33.596Z,6.07
2019-05-06T03:21:45.012Z,6.14
2019-05-06T03:26:53.398Z,6.15
2019-05-06T03:31:56.959Z,6.11
2019-05-06T03:37:00.535Z,6.05
2019-05-06T03:42:04.789Z,6.04
2019-05-06T03:47:10.020Z,6.11
2019-05-06T03:52:13.723Z,5.99
2019-05-06T03:57:18.673Z,5.97
2019-05-06T04:02:24.026Z,5.96
2019-05-06T04:07:28.056Z,5.93
2019-05-06T04:12:34.621Z,5.96
2019-05-06T04:17:48.829Z,5.93
2019-05-06T04:23:06.433Z,5.88
2019-05-06T04:28:17.891Z,5.93
2019-05-06T04:33:23.673Z,6.01
2019-05-06T04:38:27.078Z,5.90
2019-05-06T04:43:33.659Z,6.04
2019-05-06T04:48:36.022Z,6.05
2019-05-06T04:53:39.434Z,6.02
2019-05-06T04:58:43.924Z,6.05
2019-05-06T05:03:47.554Z,6.11
2019-05-06T05:08:53.202Z,6.15
2019-05-06T05:14:02.834Z,6.22
2019-05-06T05:19:12.106Z,6.35
2019-05-06T05:24:15.463Z,6.41
2019-05-06T05:29:18.927Z,6.42
2019-05-06T05:34:26.648Z,6.34
2019-05-06T05:39:27.670Z,6.42
2019-05-06T05:44:32.744Z,6.48
2019-05-06T05:49:37.829Z,6.48
2019-05-06T05:54:42.354Z,6.58
2019-05-06T05:59:45.989Z,6.68
2019-05-06T06:04:54.803Z,6.79
2019-05-06T06:10:02.705Z,6.84
2019-05-06T06:15:08.969Z,6.93
2019-05-06T06:20:32.754Z,7.09
2019-05-06T06:25:36.787Z,7.23
2019-05-06T06:30:47.743Z,7.40
2019-05-06T06:35:55.401Z,7.51
2019-05-06T06:40:58.874Z,7.65
2019-05-06T06:46:02.555Z,7.82
2019-05-06T06:51:06.077Z,7.99
2019-05-06T06:56:21.880Z,8.07
2019-05-06T07:01:29.399Z,8.28
2019-05-06T07:06:34.523Z,8.39
2019-05-06T07:11:38.093Z,8.50
2019-05-06T07:16:43.049Z,8.74
2019-05-06T07:21:52.258Z,9.01
2019-05-06T07:26:59.886Z,9.32
2019-05-06T07:32:03.314Z,9.47
2019-05-06T07:37:06.728Z,9.42
2019-05-06T07:42:17.822Z,9.66
2019-05-06T07:47:23.952Z,9.82
2019-05-06T07:52:27.572Z,10.14
2019-05-06T07:57:32.981Z,10.31
2019-05-06T08:02:36.193Z,10.61
2019-05-06T08:07:39.613Z,10.83
2019-05-06T08:12:43.049Z,11.00
2019-05-06T08:17:46.475Z,10.94
2019-05-06T08:23:03.556Z,11.27
2019-05-06T08:28:07.011Z,11.48
2019-05-06T08:33:12.718Z,11.65
2019-05-06T08:38:15.656Z,12.04
2019-05-06T08:43:19.089Z,11.74
2019-05-06T08:48:22.515Z,11.54
2019-05-06T08:53:27.579Z,11.99
2019-05-06T08:58:47.442Z,12.62
2019-05-06T09:04:06.421Z,13.02
2019-05-06T09:08:56.975Z,13.59
2019-05-06T09:14:03.199Z,14.28
2019-05-06T09:19:05.927Z,14.54
2019-05-06T09:24:09.409Z,15.13
2019-05-06T09:29:17.311Z,15.47
2019-05-06T09:34:34.392Z,15.01
2019-05-06T09:39:37.944Z,15.31
2019-05-06T09:44:42.880Z,15.19
2019-05-06T09:49:47.973Z,15.09
2019-05-06T09:54:58.727Z,15.74
2019-05-06T10:00:04.573Z,16.59
2019-05-06T10:05:07.443Z,17.12
2019-05-06T10:10:10.991Z,17.85
2019-05-06T10:15:16.163Z,17.01
2019-05-06T10:20:22.201Z,16.97
2019-05-06T10:25:24.952Z,17.02
2019-05-06T10:30:28.385Z,16.89
2019-05-06T10:35:32.380Z,17.39
2019-05-06T10:40:56.238Z,16.93
2019-05-06T10:45:44.112Z,16.91
2019-05-06T10:50:49.478Z,16.89
2019-05-06T10:55:54.800Z,18.05
2019-05-06T11:00:59.872Z,18.69
2019-05-06T11:06:03.299Z,18.62
2019-05-06T11:11:15.346Z,18.02
2019-05-06T11:16:12.975Z,17.80
2019-05-06T11:21:16.522Z,17.16
2019-05-06T11:26:19.944Z,16.85
2019-05-06T11:36:57.653Z,17.85
2019-05-06T11:42:22.821Z,17.73
2019-05-06T11:47:06.251Z,17.56
2019-05-06T11:52:09.683Z,18.12
2019-05-06T11:57:13.108Z,17.73
2019-05-06T12:02:20.904Z,18.15
2019-05-06T12:07:24.877Z,18.40
2019-05-06T12:12:28.482Z,18.39
2019-05-06T12:17:31.899Z,17.95
2019-05-06T12:22:38.242Z,17.63
2019-05-06T12:27:44.175Z,17.54
2019-05-06T12:38:26.715Z,16.77
2019-05-06T12:43:24.386Z,16.52
2019-05-06T12:48:29.502Z,16.50
2019-05-06T12:53:32.938Z,16.60
2019-05-06T12:58:36.361Z,16.77
2019-05-06T13:03:39.880Z,16.44
2019-05-06T13:08:56.642Z,16.49
2019-05-06T13:13:57.404Z,17.18
2019-05-06T13:18:54.962Z,17.11
2019-05-06T13:24:04.622Z,16.27
2019-05-06T13:29:10.027Z,15.88
2019-05-06T13:34:17.665Z,15.40
2019-05-06T13:39:23.773Z,15.60
2019-05-06T13:44:26.330Z,16.10
2019-05-06T13:49:31.468Z,16.37
2019-05-06T13:54:34.991Z,17.31
2019-05-06T13:59:38.447Z,18.31
2019-05-06T14:04:44.226Z,17.87
2019-05-06T14:09:47.116Z,17.33
2019-05-06T14:14:52.738Z,16.55
2019-05-06T14:19:55.703Z,16.15
2019-05-06T14:25:00.788Z,15.88
2019-05-06T14:30:16.710Z,15.84
2019-05-06T14:35:20.232Z,15.32
2019-05-06T14:40:25.340Z,15.31
2019-05-06T14:45:28.797Z,15.32
2019-05-06T14:50:44.424Z,15.03
2019-05-06T14:55:38.920Z,15.05
2019-05-06T15:00:42.687Z,15.63
2019-05-06T15:05:46.112Z,15.73
2019-05-06T15:10:49.699Z,15.53
2019-05-06T15:15:53.281Z,15.28
2019-05-06T15:20:56.727Z,14.89
2019-05-06T15:26:00.183Z,14.83
2019-05-06T15:31:05.248Z,14.69
2019-05-06T15:36:12.709Z,14.19
2019-05-06T15:41:15.500Z,14.27
2019-05-06T15:46:18.938Z,13.74
2019-05-06T15:51:24.007Z,13.46
2019-05-06T15:56:27.434Z,13.53
2019-05-06T16:01:33.211Z,13.29
2019-05-06T16:06:36.048Z,12.76
2019-05-06T16:11:39.474Z,12.51
2019-05-06T16:16:43.102Z,12.48
2019-05-06T16:21:46.530Z,12.47
2019-05-06T16:26:52.216Z,12.35
2019-05-06T16:31:55.198Z,12.34
2019-05-06T16:36:58.652Z,12.35
2019-05-06T16:42:03.616Z,12.19
2019-05-06T16:47:07.297Z,12.10
2019-05-06T16:52:12.903Z,12.23
2019-05-06T16:57:20.237Z,11.97
2019-05-06T17:02:26.659Z,12.02
2019-05-06T17:07:30.158Z,12.01
2019-05-06T17:34:36.336Z,11.63
2019-05-06T17:44:29.656Z,11.63
2019-05-06T17:49:37.370Z,12.06
2019-05-06T17:54:42.899Z,11.76
2019-05-06T17:59:46.274Z,11.75
2019-05-06T18:04:49.863Z,11.64
2019-05-06T18:09:53.332Z,11.55
2019-05-06T18:14:58.292Z,11.42
2019-05-06T18:20:02.956Z,11.45
2019-05-06T18:25:06.889Z,11.26
2019-05-06T18:30:22.401Z,11.18
2019-05-06T18:35:16.361Z,11.07
2019-05-06T18:40:19.935Z,10.82
2019-05-06T18:45:23.449Z,10.90
2019-05-06T18:50:26.904Z,10.57
2019-05-06T18:55:32.546Z,10.56
2019-05-06T19:00:35.791Z,10.49
2019-05-06T19:05:42.940Z,10.47
2019-05-06T19:10:46.499Z,10.42
2019-05-06T19:15:50.016Z,10.13
2019-05-06T19:20:53.889Z,10.09
2019-05-06T19:25:57.307Z,9.87
2019-05-06T19:31:03.834Z,9.78
2019-05-06T19:36:07.323Z,9.68
2019-05-06T19:41:12.688Z,9.57
2019-05-06T19:46:15.916Z,9.66
2019-05-06T19:51:19.398Z,9.60
2019-05-06T19:56:23.310Z,9.56
2019-05-06T20:01:26.864Z,9.65
2019-05-06T20:06:40.641Z,9.57
2019-05-06T20:11:45.013Z,9.46
2019-05-06T20:16:48.529Z,9.35
2019-05-06T20:21:52.678Z,9.35
2019-05-06T20:26:56.287Z,9.26
2019-05-06T20:31:59.710Z,8.87
2019-05-06T20:37:03.232Z,8.96
2019-05-06T20:42:08.574Z,8.99
2019-05-06T20:47:15.142Z,8.77
2019-05-06T20:52:22.999Z,8.44
2019-05-06T20:57:28.294Z,8.67
2019-05-06T21:02:32.662Z,8.60
2019-05-06T21:07:38.953Z,8.70
2019-05-06T21:12:53.241Z,8.68
2019-05-06T21:18:15.540Z,8.80
2019-05-06T21:23:18.961Z,8.76
2019-05-06T21:28:23.735Z,8.81
2019-05-06T21:33:27.413Z,8.92
2019-05-06T21:38:30.840Z,8.98
2019-05-06T21:43:46.029Z,9.03
2019-05-06T21:48:39.432Z,9.04
2019-05-06T21:53:42.857Z,9.03
2019-05-06T21:58:46.277Z,8.94
2019-05-06T22:03:49.701Z,8.90
2019-05-06T22:08:53.197Z,8.93
2019-05-06T22:14:00.756Z,8.93
2019-05-06T22:19:02.547Z,8.93
2019-05-06T22:24:06.163Z,8.89
2019-05-06T22:29:09.589Z,8.91
2019-05-06T22:34:15.842Z,8.95
2019-05-06T22:39:18.612Z,8.81
2019-05-06T22:44:22.807Z,8.85
2019-05-06T22:49:26.255Z,8.85
2019-05-06T22:54:31.893Z,8.79
2019-05-06T22:59:34.858Z,8.79
2019-05-06T23:04:39.992Z,8.74
2019-05-06T23:09:43.484Z,8.68
2019-05-06T23:14:46.897Z,8.68
2019-05-06T23:19:52.704Z,8.78
2019-05-06T23:24:55.485Z,8.77
2019-05-06T23:29:58.903Z,8.72
2019-05-06T23:35:03.283Z,8.76
2019-05-06T23:40:43.389Z,8.79
2019-05-06T23:46:05.403Z,8.78
2019-05-06T23:51:45.284Z,8.77
2019-05-06T23:56:47.559Z,8.77
